createdAt,value
2024-05-09T00:00:50.009Z,22.95
2024-05-09T00:11:18.488Z,22.93
2024-05-09T00:21:26.203Z,22.91
2024-05-09T00:31:33.042Z,22.89
2024-05-09T00:41:40.250Z,22.87
2024-05-09T00:51:48.240Z,22.85
2024-05-09T01:01:55.695Z,22.84
2024-05-09T01:12:02.641Z,22.82
2024-05-09T01:22:10.012Z,22.79
2024-05-09T01:32:17.007Z,22.76
2024-05-09T01:42:24.053Z,22.74
2024-05-09T01:52:30.981Z,22.72
2024-05-09T02:02:38.178Z,22.70
2024-05-09T02:12:45.141Z,22.68
2024-05-09T02:22:52.304Z,22.67
2024-05-09T02:32:59.861Z,22.64
2024-05-09T02:43:08.537Z,22.63
2024-05-09T02:53:17.456Z,22.61
2024-05-09T03:03:25.189Z,22.59
2024-05-09T03:13:32.624Z,22.58
2024-05-09T03:23:42.142Z,22.56
2024-05-09T03:33:49.312Z,22.54
2024-05-09T03:43:56.645Z,22.53
2024-05-09T03:54:04.143Z,22.50
2024-05-09T04:04:11.292Z,22.48
2024-05-09T04:14:18.359Z,22.45
2024-05-09T04:24:25.102Z,22.44
2024-05-09T04:34:31.884Z,22.42
2024-05-09T04:44:39.876Z,22.41
2024-05-09T04:54:47.025Z,22.41
2024-05-09T05:04:57.575Z,22.41
2024-05-09T05:15:12.047Z,22.43
2024-05-09T05:25:19.320Z,22.44
2024-05-09T05:35:26.044Z,22.45
2024-05-09T05:45:33.227Z,22.45
2024-05-09T05:55:42.006Z,22.45
2024-05-09T06:05:56.792Z,22.45
2024-05-09T06:16:05.172Z,22.46
2024-05-09T06:26:11.800Z,22.47
2024-05-09T06:36:18.756Z,22.47
2024-05-09T06:46:27.042Z,22.48
2024-05-09T06:56:34.345Z,22.49
2024-05-09T07:06:42.265Z,22.51
2024-05-09T07:16:49.947Z,22.51
2024-05-09T07:26:57.996Z,22.55
2024-05-09T07:37:06.274Z,22.63
2024-05-09T07:48:28.026Z,22.68
2024-05-09T07:57:40.732Z,22.71
2024-05-09T08:07:47.870Z,22.74
2024-05-09T08:17:54.814Z,22.75
2024-05-09T08:28:02.391Z,22.78
2024-05-09T08:38:10.165Z,22.80
2024-05-09T08:48:17.620Z,22.83
2024-05-09T08:58:25.637Z,22.87
2024-05-09T09:08:32.748Z,22.88
2024-05-09T09:18:40.539Z,22.90
2024-05-09T09:28:48.022Z,22.95
2024-05-09T09:38:56.315Z,22.99
2024-05-09T09:49:03.707Z,23.02
2024-05-09T09:59:14.918Z,23.06
2024-05-09T10:09:23.579Z,23.12
2024-05-09T10:19:31.883Z,23.17
2024-05-09T10:29:39.119Z,23.22
2024-05-09T10:39:46.330Z,23.29
2024-05-09T10:49:53.253Z,23.35
2024-05-09T11:00:02.477Z,23.42
2024-05-09T11:10:14.554Z,23.49
2024-05-09T11:20:29.114Z,23.58
2024-05-09T11:30:37.063Z,23.65
2024-05-09T11:40:44.214Z,23.72
2024-05-09T11:50:51.059Z,23.80
2024-05-09T12:00:58.200Z,23.86
2024-05-09T12:11:05.914Z,23.85
2024-05-09T12:21:16.901Z,23.79
2024-05-09T12:31:23.788Z,23.75
2024-05-09T12:41:30.411Z,23.73
2024-05-09T12:51:37.023Z,23.73
2024-05-09T13:01:43.911Z,23.72
2024-05-09T13:11:50.510Z,23.74
2024-05-09T13:21:58.255Z,23.76
2024-05-09T13:32:05.130Z,23.78
2024-05-09T13:42:12.638Z,23.80
2024-05-09T13:52:20.667Z,23.86
2024-05-09T14:02:27.930Z,24.00
2024-05-09T14:12:34.825Z,24.11
2024-05-09T14:22:57.711Z,24.23
2024-05-09T14:33:05.723Z,24.24
2024-05-09T14:43:14.516Z,24.25
2024-05-09T14:53:23.809Z,24.26
2024-05-09T15:03:30.848Z,24.26
2024-05-09T15:13:37.676Z,24.27
2024-05-09T15:23:44.379Z,24.27
2024-05-09T15:33:51.507Z,24.27
2024-05-09T15:43:58.587Z,24.27
2024-05-09T15:54:06.714Z,24.26
2024-05-09T16:04:15.143Z,24.24
2024-05-09T16:14:22.076Z,24.22
2024-05-09T16:24:28.744Z,24.20
2024-05-09T16:34:35.439Z,24.18
2024-05-09T16:44:42.176Z,24.15
2024-05-09T16:54:49.333Z,24.13
2024-05-09T17:04:56.295Z,24.11
2024-05-09T17:15:06.480Z,24.10
2024-05-09T17:25:17.282Z,24.08
2024-05-09T17:35:24.662Z,24.03
2024-05-09T17:45:42.197Z,23.96
2024-05-09T17:55:49.149Z,23.91
2024-05-09T18:05:55.947Z,23.87
2024-05-09T18:16:04.451Z,23.83
2024-05-09T18:26:11.265Z,23.79
2024-05-09T18:36:19.011Z,23.76
2024-05-09T18:46:26.021Z,23.72
2024-05-09T18:56:32.884Z,23.71
2024-05-09T19:06:40.782Z,23.70
2024-05-09T19:16:47.339Z,23.72
2024-05-09T19:26:56.278Z,23.71
2024-05-09T19:37:03.411Z,23.70
2024-05-09T19:47:12.368Z,23.66
2024-05-09T19:57:20.611Z,23.63
2024-05-09T20:07:27.553Z,23.59
2024-05-09T20:17:34.271Z,23.54
2024-05-09T20:27:41.300Z,23.50
2024-05-09T20:37:47.768Z,23.46
2024-05-09T20:47:55.880Z,23.43
2024-05-09T20:58:02.795Z,23.40
2024-05-09T21:08:10.280Z,23.36
2024-05-09T21:18:17.438Z,23.33
2024-05-09T21:28:24.993Z,23.30
2024-05-09T21:38:32.111Z,23.27
2024-05-09T21:48:39.731Z,23.22
2024-05-09T21:58:46.163Z,23.19
2024-05-09T22:08:52.703Z,23.11
2024-05-09T22:18:59.648Z,22.96
2024-05-09T22:29:06.512Z,22.79
2024-05-09T22:39:12.893Z,22.67
2024-05-09T22:49:19.956Z,22.58
2024-05-09T22:59:27.150Z,22.52
2024-05-09T23:09:33.833Z,22.46
2024-05-09T23:19:40.568Z,22.41
2024-05-09T23:30:00.616Z,22.36
2024-05-09T23:40:09.997Z,22.34
2024-05-09T23:50:23.987Z,22.39
